sensor_id;sensor_type;location;lat;lon;timestamp;temperature;humidity
68977;SHT31;56029;52.568;13.588;2023-10-08T00:01:42;11.60;99.99
68977;SHT31;56029;52.568;13.588;2023-10-08T00:04:09;11.65;99.99
68977;SHT31;56029;52.568;13.588;2023-10-08T00:06:35;11.57;99.99
68977;SHT31;56029;52.568;13.588;2023-10-08T00:09:00;11.60;99.99
68977;SHT31;56029;52.568;13.588;2023-10-08T00:11:26;11.54;99.99
68977;SHT31;56029;52.568;13.588;2023-10-08T00:13:51;11.54;99.99
68977;SHT31;56029;52.568;13.588;2023-10-08T00:16:17;11.47;99.99
68977;SHT31;56029;52.568;13.588;2023-10-08T00:18:44;11.62;99.99
68977;SHT31;56029;52.568;13.588;2023-10-08T00:21:09;11.50;99.99
68977;SHT31;56029;52.568;13.588;2023-10-08T00:23:35;11.55;99.99
68977;SHT31;56029;52.568;13.588;2023-10-08T00:26:01;11.53;99.99
68977;SHT31;56029;52.568;13.588;2023-10-08T00:28:27;11.54;99.99
68977;SHT31;56029;52.568;13.588;2023-10-08T00:30:52;11.53;99.99
68977;SHT31;56029;52.568;13.588;2023-10-08T00:33:18;11.57;99.99
68977;SHT31;56029;52.568;13.588;2023-10-08T00:35:43;11.64;99.99
68977;SHT31;56029;52.568;13.588;2023-10-08T00:38:09;11.67;99.99
68977;SHT31;56029;52.568;13.588;2023-10-08T00:40:38;11.60;99.99
68977;SHT31;56029;52.568;13.588;2023-10-08T00:43:04;11.61;99.99
68977;SHT31;56029;52.568;13.588;2023-10-08T00:45:29;11.58;99.99
68977;SHT31;56029;52.568;13.588;2023-10-08T00:47:56;11.54;99.99
68977;SHT31;56029;52.568;13.588;2023-10-08T00:50:21;11.58;99.99
68977;SHT31;56029;52.568;13.588;2023-10-08T00:52:48;11.61;99.99
68977;SHT31;56029;52.568;13.588;2023-10-08T00:55:14;11.62;99.99
68977;SHT31;56029;52.568;13.588;2023-10-08T00:57:40;11.64;99.99
68977;SHT31;56029;52.568;13.588;2023-10-08T01:00:06;11.62;99.99
68977;SHT31;56029;52.568;13.588;2023-10-08T01:02:32;11.60;99.99
68977;SHT31;56029;52.568;13.588;2023-10-08T01:04:57;11.64;99.99
68977;SHT31;56029;52.568;13.588;2023-10-08T01:07:24;11.62;99.99
68977;SHT31;56029;52.568;13.588;2023-10-08T01:09:50;11.61;99.99
68977;SHT31;56029;52.568;13.588;2023-10-08T01:12:20;11.64;99.99
68977;SHT31;56029;52.568;13.588;2023-10-08T01:14:46;11.61;99.99
68977;SHT31;56029;52.568;13.588;2023-10-08T01:17:13;11.60;99.99
68977;SHT31;56029;52.568;13.588;2023-10-08T01:19:43;11.64;99.99
68977;SHT31;56029;52.568;13.588;2023-10-08T01:22:08;11.57;99.99
68977;SHT31;56029;52.568;13.588;2023-10-08T01:24:34;11.58;99.99
68977;SHT31;56029;52.568;13.588;2023-10-08T01:26:59;11.57;99.99
68977;SHT31;56029;52.568;13.588;2023-10-08T01:29:25;11.54;99.99
68977;SHT31;56029;52.568;13.588;2023-10-08T01:31:50;11.55;99.99
68977;SHT31;56029;52.568;13.588;2023-10-08T01:34:16;11.55;99.99
68977;SHT31;56029;52.568;13.588;2023-10-08T01:36:41;11.51;99.99
68977;SHT31;56029;52.568;13.588;2023-10-08T01:39:07;11.53;99.99
68977;SHT31;56029;52.568;13.588;2023-10-08T01:41:32;11.51;99.99
68977;SHT31;56029;52.568;13.588;2023-10-08T01:43:58;11.44;99.99
68977;SHT31;56029;52.568;13.588;2023-10-08T01:46:24;11.47;99.99
68977;SHT31;56029;52.568;13.588;2023-10-08T01:48:50;11.43;99.99
68977;SHT31;56029;52.568;13.588;2023-10-08T01:51:15;11.41;99.99
68977;SHT31;56029;52.568;13.588;2023-10-08T01:53:41;11.45;99.99
68977;SHT31;56029;52.568;13.588;2023-10-08T01:56:07;11.44;99.99
68977;SHT31;56029;52.568;13.588;2023-10-08T01:58:32;11.44;99.99
68977;SHT31;56029;52.568;13.588;2023-10-08T02:01:00;11.40;99.99
68977;SHT31;56029;52.568;13.588;2023-10-08T02:03:26;11.34;99.99
68977;SHT31;56029;52.568;13.588;2023-10-08T02:05:52;11.40;99.99
68977;SHT31;56029;52.568;13.588;2023-10-08T02:08:17;11.41;99.99
68977;SHT31;56029;52.568;13.588;2023-10-08T02:10:43;11.41;99.99
68977;SHT31;56029;52.568;13.588;2023-10-08T02:13:11;11.41;99.99
68977;SHT31;56029;52.568;13.588;2023-10-08T02:15:44;11.43;99.99
68977;SHT31;56029;52.568;13.588;2023-10-08T02:18:10;11.34;99.99
68977;SHT31;56029;52.568;13.588;2023-10-08T02:20:36;11.45;99.99
68977;SHT31;56029;52.568;13.588;2023-10-08T02:23:02;11.41;99.99
68977;SHT31;56029;52.568;13.588;2023-10-08T02:25:27;11.40;99.99
68977;SHT31;56029;52.568;13.588;2023-10-08T02:27:53;11.45;99.99
68977;SHT31;56029;52.568;13.588;2023-10-08T02:30:19;11.47;99.99
68977;SHT31;56029;52.568;13.588;2023-10-08T02:32:44;11.47;99.99
68977;SHT31;56029;52.568;13.588;2023-10-08T02:35:10;11.51;99.99
68977;SHT31;56029;52.568;13.588;2023-10-08T02:37:35;11.48;99.99
68977;SHT31;56029;52.568;13.588;2023-10-08T02:40:01;11.47;99.99
68977;SHT31;56029;52.568;13.588;2023-10-08T02:42:27;11.44;99.99
68977;SHT31;56029;52.568;13.588;2023-10-08T02:44:52;11.47;99.99
68977;SHT31;56029;52.568;13.588;2023-10-08T02:47:18;11.47;99.99
68977;SHT31;56029;52.568;13.588;2023-10-08T02:49:43;11.48;99.99
68977;SHT31;56029;52.568;13.588;2023-10-08T02:52:09;11.48;99.99
68977;SHT31;56029;52.568;13.588;2023-10-08T02:54:34;11.48;99.99
68977;SHT31;56029;52.568;13.588;2023-10-08T02:57:00;11.50;99.99
68977;SHT31;56029;52.568;13.588;2023-10-08T02:59:29;11.47;99.99
68977;SHT31;56029;52.568;13.588;2023-10-08T03:01:55;11.44;99.99
68977;SHT31;56029;52.568;13.588;2023-10-08T03:04:20;11.44;99.99
68977;SHT31;56029;52.568;13.588;2023-10-08T03:06:46;11.43;99.99
68977;SHT31;56029;52.568;13.588;2023-10-08T03:09:11;11.43;99.99
68977;SHT31;56029;52.568;13.588;2023-10-08T03:11:37;11.34;99.99
68977;SHT31;56029;52.568;13.588;2023-10-08T03:14:03;11.40;99.99
68977;SHT31;56029;52.568;13.588;2023-10-08T03:16:28;11.38;99.99
68977;SHT31;56029;52.568;13.588;2023-10-08T03:18:54;11.40;99.99
68977;SHT31;56029;52.568;13.588;2023-10-08T03:21:20;11.44;99.99
68977;SHT31;56029;52.568;13.588;2023-10-08T03:23:48;11.35;99.99
68977;SHT31;56029;52.568;13.588;2023-10-08T03:26:14;11.34;99.99
68977;SHT31;56029;52.568;13.588;2023-10-08T03:28:40;11.34;99.99
68977;SHT31;56029;52.568;13.588;2023-10-08T03:31:05;11.30;99.99
68977;SHT31;56029;52.568;13.588;2023-10-08T03:33:33;11.27;99.99
68977;SHT31;56029;52.568;13.588;2023-10-08T03:36:06;11.28;99.99
68977;SHT31;56029;52.568;13.588;2023-10-08T03:38:31;11.27;99.99
68977;SHT31;56029;52.568;13.588;2023-10-08T03:40:57;11.23;99.99
68977;SHT31;56029;52.568;13.588;2023-10-08T03:43:22;11.24;99.99
68977;SHT31;56029;52.568;13.588;2023-10-08T03:45:48;11.24;99.99
68977;SHT31;56029;52.568;13.588;2023-10-08T03:48:13;11.23;99.99
68977;SHT31;56029;52.568;13.588;2023-10-08T03:50:41;11.23;99.99
68977;SHT31;56029;52.568;13.588;2023-10-08T03:53:07;11.23;99.99
68977;SHT31;56029;52.568;13.588;2023-10-08T03:55:33;11.17;99.99
68977;SHT31;56029;52.568;13.588;2023-10-08T03:57:58;11.22;99.99
68977;SHT31;56029;52.568;13.588;2023-10-08T04:00:24;11.17;99.99
68977;SHT31;56029;52.568;13.588;2023-10-08T04:02:49;11.22;99.99
68977;SHT31;56029;52.568;13.588;2023-10-08T04:05:15;11.10;99.99
68977;SHT31;56029;52.568;13.588;2023-10-08T04:07:40;11.06;99.99
68977;SHT31;56029;52.568;13.588;2023-10-08T04:10:06;11.03;99.99
68977;SHT31;56029;52.568;13.588;2023-10-08T04:12:32;11.00;99.99
68977;SHT31;56029;52.568;13.588;2023-10-08T04:14:58;11.03;99.99
68977;SHT31;56029;52.568;13.588;2023-10-08T04:17:23;11.06;99.99
68977;SHT31;56029;52.568;13.588;2023-10-08T04:19:49;11.06;99.99
68977;SHT31;56029;52.568;13.588;2023-10-08T04:22:14;11.04;99.99
68977;SHT31;56029;52.568;13.588;2023-10-08T04:24:40;11.04;99.99
68977;SHT31;56029;52.568;13.588;2023-10-08T04:27:05;11.00;99.99
68977;SHT31;56029;52.568;13.588;2023-10-08T04:29:31;11.02;99.99
68977;SHT31;56029;52.568;13.588;2023-10-08T04:31:56;10.92;99.99
68977;SHT31;56029;52.568;13.588;2023-10-08T04:34:22;10.92;99.99
68977;SHT31;56029;52.568;13.588;2023-10-08T04:36:48;10.86;99.99
68977;SHT31;56029;52.568;13.588;2023-10-08T04:39:14;10.82;99.99
68977;SHT31;56029;52.568;13.588;2023-10-08T04:41:40;10.73;99.99
68977;SHT31;56029;52.568;13.588;2023-10-08T04:44:06;10.64;99.99
68977;SHT31;56029;52.568;13.588;2023-10-08T04:46:31;10.64;99.99
68977;SHT31;56029;52.568;13.588;2023-10-08T04:48:57;10.61;99.99
68977;SHT31;56029;52.568;13.588;2023-10-08T04:51:22;10.55;99.99
68977;SHT31;56029;52.568;13.588;2023-10-08T04:53:48;10.48;99.99
68977;SHT31;56029;52.568;13.588;2023-10-08T04:56:14;10.48;99.99
68977;SHT31;56029;52.568;13.588;2023-10-08T04:58:40;10.42;99.99
68977;SHT31;56029;52.568;13.588;2023-10-08T05:01:07;10.40;99.99
68977;SHT31;56029;52.568;13.588;2023-10-08T05:03:32;10.35;99.99
68977;SHT31;56029;52.568;13.588;2023-10-08T05:05:58;10.30;99.99
68977;SHT31;56029;52.568;13.588;2023-10-08T05:08:23;10.22;99.99
68977;SHT31;56029;52.568;13.588;2023-10-08T05:10:49;10.20;99.99
68977;SHT31;56029;52.568;13.588;2023-10-08T05:13:18;10.22;99.99
68977;SHT31;56029;52.568;13.588;2023-10-08T05:15:43;10.08;99.99
68977;SHT31;56029;52.568;13.588;2023-10-08T05:18:09;10.16;99.99
68977;SHT31;56029;52.568;13.588;2023-10-08T05:20:34;10.11;99.99
68977;SHT31;56029;52.568;13.588;2023-10-08T05:23:00;10.13;99.99
68977;SHT31;56029;52.568;13.588;2023-10-08T05:25:25;10.10;99.99
68977;SHT31;56029;52.568;13.588;2023-10-08T05:27:53;10.03;99.99
68977;SHT31;56029;52.568;13.588;2023-10-08T05:30:21;10.01;99.99
68977;SHT31;56029;52.568;13.588;2023-10-08T05:32:47;9.98;99.99
68977;SHT31;56029;52.568;13.588;2023-10-08T05:35:12;9.98;99.99
68977;SHT31;56029;52.568;13.588;2023-10-08T05:37:38;9.94;99.99
68977;SHT31;56029;52.568;13.588;2023-10-08T05:40:04;9.96;99.99
68977;SHT31;56029;52.568;13.588;2023-10-08T05:42:29;9.94;99.99
68977;SHT31;56029;52.568;13.588;2023-10-08T05:44:55;9.91;99.99
68977;SHT31;56029;52.568;13.588;2023-10-08T05:47:21;9.94;99.99
68977;SHT31;56029;52.568;13.588;2023-10-08T05:49:49;9.98;99.99
68977;SHT31;56029;52.568;13.588;2023-10-08T05:52:15;9.94;99.99
68977;SHT31;56029;52.568;13.588;2023-10-08T05:54:41;9.91;99.99
68977;SHT31;56029;52.568;13.588;2023-10-08T05:57:08;9.94;99.99
68977;SHT31;56029;52.568;13.588;2023-10-08T05:59:34;9.90;99.99
68977;SHT31;56029;52.568;13.588;2023-10-08T06:01:59;9.93;99.99
68977;SHT31;56029;52.568;13.588;2023-10-08T06:04:27;9.90;99.99
68977;SHT31;56029;52.568;13.588;2023-10-08T06:06:53;9.91;99.99
68977;SHT31;56029;52.568;13.588;2023-10-08T06:09:18;9.86;99.99
68977;SHT31;56029;52.568;13.588;2023-10-08T06:11:44;9.91;99.99
68977;SHT31;56029;52.568;13.588;2023-10-08T06:14:11;9.97;99.99
68977;SHT31;56029;52.568;13.588;2023-10-08T06:16:36;10.04;99.99
68977;SHT31;56029;52.568;13.588;2023-10-08T06:19:02;10.10;99.99
68977;SHT31;56029;52.568;13.588;2023-10-08T06:21:27;10.17;99.99
68977;SHT31;56029;52.568;13.588;2023-10-08T06:23:53;10.28;99.99
68977;SHT31;56029;52.568;13.588;2023-10-08T06:26:18;10.30;99.99
68977;SHT31;56029;52.568;13.588;2023-10-08T06:28:44;10.44;99.99
68977;SHT31;56029;52.568;13.588;2023-10-08T06:31:10;10.49;99.99
68977;SHT31;56029;52.568;13.588;2023-10-08T06:33:36;10.52;99.99
68977;SHT31;56029;52.568;13.588;2023-10-08T06:36:02;10.62;99.99
68977;SHT31;56029;52.568;13.588;2023-10-08T06:38:29;10.66;99.99
68977;SHT31;56029;52.568;13.588;2023-10-08T06:40:55;10.68;99.99
68977;SHT31;56029;52.568;13.588;2023-10-08T06:43:22;10.65;99.99
68977;SHT31;56029;52.568;13.588;2023-10-08T06:45:48;10.64;99.99
68977;SHT31;56029;52.568;13.588;2023-10-08T06:48:14;10.68;99.99
68977;SHT31;56029;52.568;13.588;2023-10-08T06:50:39;10.65;99.27
68977;SHT31;56029;52.568;13.588;2023-10-08T06:53:05;10.64;99.49
68977;SHT31;56029;52.568;13.588;2023-10-08T06:55:30;10.62;98.56
68977;SHT31;56029;52.568;13.588;2023-10-08T06:57:56;10.68;98.64
68977;SHT31;56029;52.568;13.588;2023-10-08T07:00:22;10.71;98.14
68977;SHT31;56029;52.568;13.588;2023-10-08T07:02:47;10.68;97.94
68977;SHT31;56029;52.568;13.588;2023-10-08T07:05:13;10.68;98.06
68977;SHT31;56029;52.568;13.588;2023-10-08T07:07:38;10.59;95.88
68977;SHT31;56029;52.568;13.588;2023-10-08T07:10:04;10.68;96.40
68977;SHT31;56029;52.568;13.588;2023-10-08T07:12:30;10.68;96.28
68977;SHT31;56029;52.568;13.588;2023-10-08T07:14:57;10.71;95.79
68977;SHT31;56029;52.568;13.588;2023-10-08T07:17:23;10.71;96.67
68977;SHT31;56029;52.568;13.588;2023-10-08T07:19:49;10.79;96.42
68977;SHT31;56029;52.568;13.588;2023-10-08T07:22:14;10.76;96.12
68977;SHT31;56029;52.568;13.588;2023-10-08T07:24:39;10.77;94.72
68977;SHT31;56029;52.568;13.588;2023-10-08T07:27:05;10.86;95.85
68977;SHT31;56029;52.568;13.588;2023-10-08T07:29:31;10.85;94.02
68977;SHT31;56029;52.568;13.588;2023-10-08T07:31:56;10.85;93.56
68977;SHT31;56029;52.568;13.588;2023-10-08T07:34:22;10.88;93.64
68977;SHT31;56029;52.568;13.588;2023-10-08T07:36:49;10.95;94.34
68977;SHT31;56029;52.568;13.588;2023-10-08T07:39:15;11.02;94.47
68977;SHT31;56029;52.568;13.588;2023-10-08T07:41:41;11.04;94.20
68977;SHT31;56029;52.568;13.588;2023-10-08T07:44:06;11.00;92.77
68977;SHT31;56029;52.568;13.588;2023-10-08T07:46:32;11.04;92.86
68977;SHT31;56029;52.568;13.588;2023-10-08T07:48:58;11.07;92.57
68977;SHT31;56029;52.568;13.588;2023-10-08T07:51:24;11.16;93.66
68977;SHT31;56029;52.568;13.588;2023-10-08T07:53:53;11.16;92.99
68977;SHT31;56029;52.568;13.588;2023-10-08T07:56:22;11.22;92.39
68977;SHT31;56029;52.568;13.588;2023-10-08T07:58:48;11.24;92.08
68977;SHT31;56029;52.568;13.588;2023-10-08T08:01:13;11.31;91.24
68977;SHT31;56029;52.568;13.588;2023-10-08T08:03:39;11.28;91.67
68977;SHT31;56029;52.568;13.588;2023-10-08T08:06:06;11.31;90.18
68977;SHT31;56029;52.568;13.588;2023-10-08T08:08:33;11.31;90.98
68977;SHT31;56029;52.568;13.588;2023-10-08T08:10:59;11.37;89.70
68977;SHT31;56029;52.568;13.588;2023-10-08T08:13:25;11.41;88.14
68977;SHT31;56029;52.568;13.588;2023-10-08T08:15:51;11.47;89.09
68977;SHT31;56029;52.568;13.588;2023-10-08T08:18:16;11.48;89.24
68977;SHT31;56029;52.568;13.588;2023-10-08T08:20:42;11.54;88.02
68977;SHT31;56029;52.568;13.588;2023-10-08T08:23:07;11.61;89.56
68977;SHT31;56029;52.568;13.588;2023-10-08T08:25:40;11.60;87.95
68977;SHT31;56029;52.568;13.588;2023-10-08T08:28:06;11.70;86.93
68977;SHT31;56029;52.568;13.588;2023-10-08T08:30:31;11.79;88.52
68977;SHT31;56029;52.568;13.588;2023-10-08T08:32:57;11.82;86.04
68977;SHT31;56029;52.568;13.588;2023-10-08T08:35:22;11.75;84.94
68977;SHT31;56029;52.568;13.588;2023-10-08T08:37:48;11.81;86.74
68977;SHT31;56029;52.568;13.588;2023-10-08T08:40:13;11.70;85.97
68977;SHT31;56029;52.568;13.588;2023-10-08T08:42:40;11.75;86.27
68977;SHT31;56029;52.568;13.588;2023-10-08T08:45:06;11.82;84.97
68977;SHT31;56029;52.568;13.588;2023-10-08T08:47:35;11.83;85.11
68977;SHT31;56029;52.568;13.588;2023-10-08T08:50:02;11.81;84.65
68977;SHT31;56029;52.568;13.588;2023-10-08T08:52:28;11.86;84.81
68977;SHT31;56029;52.568;13.588;2023-10-08T08:54:53;11.85;83.85
68977;SHT31;56029;52.568;13.588;2023-10-08T08:57:19;11.86;84.77
68977;SHT31;56029;52.568;13.588;2023-10-08T08:59:53;11.86;86.09
68977;SHT31;56029;52.568;13.588;2023-10-08T09:02:18;11.83;83.42
68977;SHT31;56029;52.568;13.588;2023-10-08T09:04:44;11.99;79.87
68977;SHT31;56029;52.568;13.588;2023-10-08T09:07:09;11.99;80.82
68977;SHT31;56029;52.568;13.588;2023-10-08T09:09:35;12.02;81.53
68977;SHT31;56029;52.568;13.588;2023-10-08T09:12:01;11.98;80.17
68977;SHT31;56029;52.568;13.588;2023-10-08T09:14:27;12.06;83.12
68977;SHT31;56029;52.568;13.588;2023-10-08T09:16:53;12.05;81.90
68977;SHT31;56029;52.568;13.588;2023-10-08T09:19:19;12.11;80.11
68977;SHT31;56029;52.568;13.588;2023-10-08T09:22:00;12.19;81.24
68977;SHT31;56029;52.568;13.588;2023-10-08T09:24:26;12.29;81.34
68977;SHT31;56029;52.568;13.588;2023-10-08T09:26:52;12.34;80.70
68977;SHT31;56029;52.568;13.588;2023-10-08T09:29:18;12.30;79.15
68977;SHT31;56029;52.568;13.588;2023-10-08T09:31:58;12.34;78.93
68977;SHT31;56029;52.568;13.588;2023-10-08T09:34:27;12.37;75.94
68977;SHT31;56029;52.568;13.588;2023-10-08T09:36:55;12.43;77.78
68977;SHT31;56029;52.568;13.588;2023-10-08T09:39:21;12.51;78.09
68977;SHT31;56029;52.568;13.588;2023-10-08T09:41:48;12.56;76.39
68977;SHT31;56029;52.568;13.588;2023-10-08T09:44:13;12.64;78.02
68977;SHT31;56029;52.568;13.588;2023-10-08T09:46:40;12.68;78.01
68977;SHT31;56029;52.568;13.588;2023-10-08T09:49:08;12.70;75.92
68977;SHT31;56029;52.568;13.588;2023-10-08T09:51:37;12.70;73.55
68977;SHT31;56029;52.568;13.588;2023-10-08T09:54:11;12.76;73.44
68977;SHT31;56029;52.568;13.588;2023-10-08T09:56:37;12.70;70.18
68977;SHT31;56029;52.568;13.588;2023-10-08T09:59:03;12.76;70.40
68977;SHT31;56029;52.568;13.588;2023-10-08T10:01:29;12.80;71.97
68977;SHT31;56029;52.568;13.588;2023-10-08T10:03:55;12.88;68.15
68977;SHT31;56029;52.568;13.588;2023-10-08T10:06:22;12.95;71.50
68977;SHT31;56029;52.568;13.588;2023-10-08T10:08:48;13.07;70.63
68977;SHT31;56029;52.568;13.588;2023-10-08T10:11:13;13.04;68.80
68977;SHT31;56029;52.568;13.588;2023-10-08T10:13:44;13.02;72.39
68977;SHT31;56029;52.568;13.588;2023-10-08T10:16:11;12.95;72.59
68977;SHT31;56029;52.568;13.588;2023-10-08T10:18:36;12.94;70.80
68977;SHT31;56029;52.568;13.588;2023-10-08T10:23:44;13.12;71.42
68977;SHT31;56029;52.568;13.588;2023-10-08T10:26:33;13.16;70.20
68977;SHT31;56029;52.568;13.588;2023-10-08T10:31:33;13.16;66.35
68977;SHT31;56029;52.568;13.588;2023-10-08T10:33:58;13.28;64.81
68977;SHT31;56029;52.568;13.588;2023-10-08T10:36:24;13.39;68.99
68977;SHT31;56029;52.568;13.588;2023-10-08T10:38:50;13.46;67.93
68977;SHT31;56029;52.568;13.588;2023-10-08T10:41:15;13.50;67.18
68977;SHT31;56029;52.568;13.588;2023-10-08T10:43:43;13.46;68.53
68977;SHT31;56029;52.568;13.588;2023-10-08T10:46:09;13.38;67.91
68977;SHT31;56029;52.568;13.588;2023-10-08T10:48:34;13.59;64.42
68977;SHT31;56029;52.568;13.588;2023-10-08T10:51:00;13.59;63.55
68977;SHT31;56029;52.568;13.588;2023-10-08T10:53:25;13.57;64.37
68977;SHT31;56029;52.568;13.588;2023-10-08T10:55:51;13.67;64.71
68977;SHT31;56029;52.568;13.588;2023-10-08T10:58:18;13.71;65.23
68977;SHT31;56029;52.568;13.588;2023-10-08T11:00:44;13.80;64.42
68977;SHT31;56029;52.568;13.588;2023-10-08T11:03:10;13.70;61.48
68977;SHT31;56029;52.568;13.588;2023-10-08T11:05:37;13.78;64.25
68977;SHT31;56029;52.568;13.588;2023-10-08T11:08:06;13.80;64.29
68977;SHT31;56029;52.568;13.588;2023-10-08T11:10:38;13.91;65.88
68977;SHT31;56029;52.568;13.588;2023-10-08T11:13:05;13.86;62.52
68977;SHT31;56029;52.568;13.588;2023-10-08T11:15:31;13.97;61.21
68977;SHT31;56029;52.568;13.588;2023-10-08T11:17:57;14.13;61.74
68977;SHT31;56029;52.568;13.588;2023-10-08T11:20:29;14.20;63.39
68977;SHT31;56029;52.568;13.588;2023-10-08T11:22:54;14.22;63.52
68977;SHT31;56029;52.568;13.588;2023-10-08T11:25:24;14.25;62.31
68977;SHT31;56029;52.568;13.588;2023-10-08T11:27:51;14.08;62.59
68977;SHT31;56029;52.568;13.588;2023-10-08T11:30:17;14.17;62.88
68977;SHT31;56029;52.568;13.588;2023-10-08T11:32:43;14.06;60.15
68977;SHT31;56029;52.568;13.588;2023-10-08T11:35:14;13.98;61.09
68977;SHT31;56029;52.568;13.588;2023-10-08T11:37:45;14.17;60.14
68977;SHT31;56029;52.568;13.588;2023-10-08T11:40:22;14.17;60.79
68977;SHT31;56029;52.568;13.588;2023-10-08T11:42:47;14.29;61.31
68977;SHT31;56029;52.568;13.588;2023-10-08T11:45:13;14.29;61.74
68977;SHT31;56029;52.568;13.588;2023-10-08T11:47:38;14.22;61.94
68977;SHT31;56029;52.568;13.588;2023-10-08T11:50:04;14.13;61.25
68977;SHT31;56029;52.568;13.588;2023-10-08T11:52:30;14.24;61.56
68977;SHT31;56029;52.568;13.588;2023-10-08T11:54:56;14.29;59.91
68977;SHT31;56029;52.568;13.588;2023-10-08T11:57:21;14.36;61.70
68977;SHT31;56029;52.568;13.588;2023-10-08T11:59:50;14.41;59.83
68977;SHT31;56029;52.568;13.588;2023-10-08T12:02:15;14.63;61.13
68977;SHT31;56029;52.568;13.588;2023-10-08T12:04:41;14.63;58.81
68977;SHT31;56029;52.568;13.588;2023-10-08T12:07:06;14.72;58.00
68977;SHT31;56029;52.568;13.588;2023-10-08T12:09:32;14.80;56.88
68977;SHT31;56029;52.568;13.588;2023-10-08T12:11:58;14.87;60.72
68977;SHT31;56029;52.568;13.588;2023-10-08T12:14:23;14.83;59.57
68977;SHT31;56029;52.568;13.588;2023-10-08T12:16:49;14.89;58.71
68977;SHT31;56029;52.568;13.588;2023-10-08T12:19:17;14.72;58.30
68977;SHT31;56029;52.568;13.588;2023-10-08T12:21:44;14.77;60.12
68977;SHT31;56029;52.568;13.588;2023-10-08T12:24:12;14.76;56.97
68977;SHT31;56029;52.568;13.588;2023-10-08T12:26:39;14.92;58.10
68977;SHT31;56029;52.568;13.588;2023-10-08T12:29:04;14.97;55.92
68977;SHT31;56029;52.568;13.588;2023-10-08T12:31:30;15.20;59.22
68977;SHT31;56029;52.568;13.588;2023-10-08T12:33:55;15.13;58.84
68977;SHT31;56029;52.568;13.588;2023-10-08T12:36:21;15.16;55.89
68977;SHT31;56029;52.568;13.588;2023-10-08T12:38:50;15.23;57.89
68977;SHT31;56029;52.568;13.588;2023-10-08T12:41:15;15.21;56.50
68977;SHT31;56029;52.568;13.588;2023-10-08T12:43:43;15.31;56.88
68977;SHT31;56029;52.568;13.588;2023-10-08T12:46:09;15.35;56.39
68977;SHT31;56029;52.568;13.588;2023-10-08T12:48:35;15.40;54.65
68977;SHT31;56029;52.568;13.588;2023-10-08T12:51:00;15.24;57.34
68977;SHT31;56029;52.568;13.588;2023-10-08T12:53:28;15.07;57.83
68977;SHT31;56029;52.568;13.588;2023-10-08T12:55:54;15.08;58.02
68977;SHT31;56029;52.568;13.588;2023-10-08T12:58:21;15.06;55.95
68977;SHT31;56029;52.568;13.588;2023-10-08T13:00:46;15.11;56.07
68977;SHT31;56029;52.568;13.588;2023-10-08T13:03:12;15.20;56.73
68977;SHT31;56029;52.568;13.588;2023-10-08T13:05:37;15.23;55.75
68977;SHT31;56029;52.568;13.588;2023-10-08T13:08:03;15.37;57.53
68977;SHT31;56029;52.568;13.588;2023-10-08T13:10:29;15.37;56.71
68977;SHT31;56029;52.568;13.588;2023-10-08T13:12:55;15.51;59.90
68977;SHT31;56029;52.568;13.588;2023-10-08T13:15:23;15.41;57.02
68977;SHT31;56029;52.568;13.588;2023-10-08T13:17:49;15.23;56.30
68977;SHT31;56029;52.568;13.588;2023-10-08T13:20:14;15.06;59.87
68977;SHT31;56029;52.568;13.588;2023-10-08T13:22:40;15.20;59.42
68977;SHT31;56029;52.568;13.588;2023-10-08T13:25:06;15.33;58.38
68977;SHT31;56029;52.568;13.588;2023-10-08T13:27:32;15.26;55.39
68977;SHT31;56029;52.568;13.588;2023-10-08T13:29:58;15.42;57.91
68977;SHT31;56029;52.568;13.588;2023-10-08T13:32:23;15.55;57.29
68977;SHT31;56029;52.568;13.588;2023-10-08T13:34:49;15.48;57.66
68977;SHT31;56029;52.568;13.588;2023-10-08T13:37:14;15.45;56.28
68977;SHT31;56029;52.568;13.588;2023-10-08T13:39:40;15.47;58.34
68977;SHT31;56029;52.568;13.588;2023-10-08T13:42:06;15.57;58.60
68977;SHT31;56029;52.568;13.588;2023-10-08T13:44:31;15.41;58.01
68977;SHT31;56029;52.568;13.588;2023-10-08T13:46:58;15.30;59.63
68977;SHT31;56029;52.568;13.588;2023-10-08T13:49:23;15.35;58.44
68977;SHT31;56029;52.568;13.588;2023-10-08T13:51:49;15.28;57.87
68977;SHT31;56029;52.568;13.588;2023-10-08T13:54:14;15.13;58.48
68977;SHT31;56029;52.568;13.588;2023-10-08T13:56:43;15.03;57.86
68977;SHT31;56029;52.568;13.588;2023-10-08T13:59:09;15.03;56.51
68977;SHT31;56029;52.568;13.588;2023-10-08T14:01:37;15.06;57.80
68977;SHT31;56029;52.568;13.588;2023-10-08T14:04:03;15.07;57.19
68977;SHT31;56029;52.568;13.588;2023-10-08T14:06:30;15.13;57.78
68977;SHT31;56029;52.568;13.588;2023-10-08T14:08:55;15.17;56.12
68977;SHT31;56029;52.568;13.588;2023-10-08T14:11:22;15.19;56.60
68977;SHT31;56029;52.568;13.588;2023-10-08T14:13:47;15.33;57.48
68977;SHT31;56029;52.568;13.588;2023-10-08T14:16:13;15.35;55.27
68977;SHT31;56029;52.568;13.588;2023-10-08T14:18:38;15.35;56.63
68977;SHT31;56029;52.568;13.588;2023-10-08T14:21:04;15.13;55.61
68977;SHT31;56029;52.568;13.588;2023-10-08T14:23:29;15.24;56.31
68977;SHT31;56029;52.568;13.588;2023-10-08T14:25:55;15.08;56.17
68977;SHT31;56029;52.568;13.588;2023-10-08T14:28:21;15.11;55.95
68977;SHT31;56029;52.568;13.588;2023-10-08T14:30:46;15.04;55.58
68977;SHT31;56029;52.568;13.588;2023-10-08T14:33:12;14.94;56.64
68977;SHT31;56029;52.568;13.588;2023-10-08T14:35:37;15.06;56.63
68977;SHT31;56029;52.568;13.588;2023-10-08T14:38:03;14.99;57.07
68977;SHT31;56029;52.568;13.588;2023-10-08T14:40:28;14.82;57.03
68977;SHT31;56029;52.568;13.588;2023-10-08T14:42:54;14.76;56.77
68977;SHT31;56029;52.568;13.588;2023-10-08T14:45:19;14.89;57.61
68977;SHT31;56029;52.568;13.588;2023-10-08T14:47:48;14.89;56.57
68977;SHT31;56029;52.568;13.588;2023-10-08T14:50:14;14.90;57.33
68977;SHT31;56029;52.568;13.588;2023-10-08T14:52:39;14.84;56.84
68977;SHT31;56029;52.568;13.588;2023-10-08T14:55:08;14.75;57.24
68977;SHT31;56029;52.568;13.588;2023-10-08T14:57:33;14.77;58.48
68977;SHT31;56029;52.568;13.588;2023-10-08T14:59:59;14.80;58.58
68977;SHT31;56029;52.568;13.588;2023-10-08T15:02:25;14.80;57.15
68977;SHT31;56029;52.568;13.588;2023-10-08T15:04:51;14.71;57.44
68977;SHT31;56029;52.568;13.588;2023-10-08T15:07:16;14.80;58.41
68977;SHT31;56029;52.568;13.588;2023-10-08T15:09:42;14.79;57.89
68977;SHT31;56029;52.568;13.588;2023-10-08T15:12:07;14.80;57.96
68977;SHT31;56029;52.568;13.588;2023-10-08T15:14:33;14.73;58.61
68977;SHT31;56029;52.568;13.588;2023-10-08T15:16:58;14.65;58.61